Time;durP1;ratioP1;P1;durP2;ratioP2;P2;SDS_P1;SDS_P2;PMS_P1;PMS_P2;Temp;Humidity;BMP_temperature;BMP_pressure;BME280_temperature;BME280_humidity;BME280_pressure;Samples;Min_cycle;Max_cycle;Signal;HPM_P1;HPM_P2
2021/08/20 00:01:38;;;;;;;5.43;2.42;;;;;;;27.86;40.42;100425.56;4426963;32;20025;-67
2021/08/20 00:04:06;;;;;;;4.50;2.10;;;;;;;27.85;40.38;100436.31;4426993;32;20185;-67
2021/08/20 00:06:33;;;;;;;4.30;1.80;;;;;;;27.69;40.55;100425.19;4422746;32;20041;-67
2021/08/20 00:08:59;;;;;;;5.25;2.20;;;;;;;27.53;40.95;100430.06;4425436;32;20441;-67
2021/08/20 00:11:24;;;;;;;4.97;2.05;;;;;;;27.64;40.88;100431.91;4427412;32;20017;-67
2021/08/20 00:13:50;;;;;;;5.43;2.20;;;;;;;27.34;41.40;100431.62;4429073;32;20045;-67
2021/08/20 00:16:16;;;;;;;2.62;2.08;;;;;;;27.57;40.92;100435.47;4426087;32;20413;-67
2021/08/20 00:18:41;;;;;;;3.60;1.95;;;;;;;27.59;41.00;100424.94;4423927;32;20053;-67
2021/08/20 00:21:09;;;;;;;8.02;2.50;;;;;;;27.51;41.29;100426.97;4425970;32;20034;-67
2021/08/20 00:23:35;;;;;;;3.30;2.08;;;;;;;27.73;40.90;100425.62;4423737;32;20182;-67
2021/08/20 00:26:01;;;;;;;3.28;2.10;;;;;;;27.43;41.55;100429.03;4428566;32;20030;-67
2021/08/20 00:28:27;;;;;;;3.40;2.30;;;;;;;27.22;42.03;100426.06;4425960;32;20487;-67
2021/08/20 00:30:52;;;;;;;6.45;2.25;;;;;;;27.21;41.99;100432.41;4427068;32;20045;-67
2021/08/20 00:33:18;;;;;;;5.05;2.00;;;;;;;27.10;42.26;100424.81;4424028;32;20057;-67
2021/08/20 00:35:45;;;;;;;2.25;1.75;;;;;;;26.86;42.65;100419.31;4426706;32;20097;-67
2021/08/20 00:38:11;;;;;;;5.15;1.83;;;;;;;26.77;42.80;100431.34;4426736;32;20483;-67
2021/08/20 00:40:38;;;;;;;2.33;1.75;;;;;;;26.89;42.38;100423.97;4430185;32;20468;-67
2021/08/20 00:43:05;;;;;;;4.35;2.20;;;;;;;27.14;42.10;100421.53;4424557;32;20102;-67
2021/08/20 00:45:31;;;;;;;5.20;2.28;;;;;;;27.02;42.37;100423.94;4427478;32;20069;-67
2021/08/20 00:47:57;;;;;;;4.82;2.30;;;;;;;26.81;42.80;100417.31;4425092;32;20069;-67
2021/08/20 00:50:22;;;;;;;2.85;2.30;;;;;;;26.79;42.80;100425.75;4423933;32;20103;-67
2021/08/20 00:52:48;;;;;;;4.40;2.00;;;;;;;26.64;43.09;100431.38;4425755;32;20413;-67
2021/08/20 00:55:15;;;;;;;6.03;2.33;;;;;;;26.61;43.19;100425.91;4425366;32;20059;-67
2021/08/20 00:57:44;;;;;;;5.65;2.67;;;;;;;26.77;42.96;100430.56;4426254;32;20449;-67
2021/08/20 01:00:10;;;;;;;4.85;2.05;;;;;;;26.83;42.83;100426.22;4423087;32;20509;-67
2021/08/20 01:02:35;;;;;;;3.75;2.20;;;;;;;26.59;43.33;100435.12;4426076;32;20069;-67
2021/08/20 01:05:01;;;;;;;3.95;2.37;;;;;;;26.48;43.54;100428.81;4427072;32;20108;-67
2021/08/20 01:07:28;;;;;;;3.80;2.70;;;;;;;26.43;43.70;100432.56;4425346;32;20056;-67
2021/08/20 01:09:53;;;;;;;4.43;2.42;;;;;;;26.48;43.71;100431.69;4426912;32;20117;-67
2021/08/20 01:12:19;;;;;;;8.75;2.90;;;;;;;26.56;43.46;100441.22;4424806;32;20496;-67
2021/08/20 01:14:49;;;;;;;4.80;2.83;;;;;;;26.35;43.85;100435.34;4427602;32;20085;-67
2021/08/20 01:17:15;;;;;;;3.60;2.12;;;;;;;26.63;43.57;100441.34;4425943;32;20115;-68
2021/08/20 01:19:41;;;;;;;6.95;2.87;;;;;;;26.43;43.72;100436.25;4424681;32;20347;-68
2021/08/20 01:22:08;;;;;;;3.72;2.28;;;;;;;26.34;43.72;100433.03;4426286;32;20129;-67
2021/08/20 01:24:34;;;;;;;5.93;1.90;;;;;;;26.49;43.59;100436.13;4425619;32;20049;-67
2021/08/20 01:27:00;;;;;;;5.18;2.40;;;;;;;26.36;43.79;100439.03;4426440;32;20117;-67
2021/08/20 01:29:25;;;;;;;3.97;2.78;;;;;;;26.20;43.95;100437.25;4420797;32;20041;-67
2021/08/20 01:31:52;;;;;;;4.75;2.60;;;;;;;26.00;44.54;100443.66;4424257;32;20088;-67
2021/08/20 01:34:18;;;;;;;4.93;2.92;;;;;;;26.25;44.02;100433.47;4428096;32;20106;-67
2021/08/20 01:36:44;;;;;;;3.25;2.53;;;;;;;26.22;44.08;100440.34;4426662;32;20537;-67
2021/08/20 01:39:10;;;;;;;5.57;3.00;;;;;;;26.39;43.81;100437.91;4426572;32;20034;-67
2021/08/20 01:41:36;;;;;;;3.83;3.08;;;;;;;26.38;43.80;100445.78;4425723;32;20069;-67
2021/08/20 01:44:02;;;;;;;3.75;2.75;;;;;;;26.44;43.77;100445.66;4421722;32;20486;-67
2021/08/20 01:46:30;;;;;;;4.05;2.58;;;;;;;26.43;43.51;100447.00;4425300;32;21209;-67
2021/08/20 01:48:59;;;;;;;4.10;2.45;;;;;;;26.70;43.49;100434.13;4425503;32;20046;-67
2021/08/20 01:51:26;;;;;;;5.10;2.45;;;;;;;26.65;43.37;100437.91;4423918;32;20030;-67
2021/08/20 01:53:56;;;;;;;7.78;2.53;;;;;;;26.79;43.16;100445.22;4426868;32;20029;-67
2021/08/20 01:58:59;;;;;;;4.47;2.60;;;;;;;26.91;42.70;100438.62;3952750;32;15851689;-67
2021/08/20 02:01:26;;;;;;;3.65;2.65;;;;;;;26.63;42.92;100447.13;4434802;32;20033;-66
2021/08/20 02:03:51;;;;;;;3.78;2.90;;;;;;;26.50;43.30;100447.13;4434936;32;20124;-68
2021/08/20 02:06:18;;;;;;;3.78;2.67;;;;;;;26.37;43.60;100447.13;4435191;32;20073;-69
2021/08/20 02:08:44;;;;;;;7.12;2.87;;;;;;;26.71;43.14;100447.22;4434391;32;20350;-69
2021/08/20 02:11:10;;;;;;;4.68;2.80;;;;;;;26.73;43.03;100451.13;4433229;32;20038;-69
2021/08/20 02:13:36;;;;;;;7.00;3.22;;;;;;;26.63;43.05;100450.00;4433649;32;20106;-66
2021/08/20 02:16:01;;;;;;;4.68;3.65;;;;;;;26.69;42.92;100447.03;4436329;32;20089;-66
2021/08/20 02:18:27;;;;;;;5.62;2.85;;;;;;;26.74;42.79;100451.88;4433367;32;20470;-67
2021/08/20 02:20:53;;;;;;;3.80;2.90;;;;;;;26.76;42.88;100457.87;4433626;32;20461;-67
2021/08/20 02:23:18;;;;;;;4.68;2.90;;;;;;;26.80;42.75;100455.41;4432040;32;20070;-69
2021/08/20 02:25:44;;;;;;;7.60;2.95;;;;;;;26.85;42.70;100460.31;4440187;32;20086;-68
2021/08/20 02:28:10;;;;;;;4.72;2.78;;;;;;;26.86;42.43;100451.09;4432183;32;20412;-68
2021/08/20 02:30:36;;;;;;;2.95;2.50;;;;;;;26.79;42.78;100451.00;4436051;32;20064;-68
2021/08/20 02:33:02;;;;;;;6.57;3.10;;;;;;;26.70;43.04;100439.91;4431987;32;20061;-68
2021/08/20 02:35:27;;;;;;;11.48;4.53;;;;;;;26.64;43.10;100437.16;4433556;32;20084;-69
2021/08/20 02:37:55;;;;;;;13.05;5.15;;;;;;;26.75;42.88;100436.87;4435104;32;20456;-68
2021/08/20 02:40:21;;;;;;;5.37;3.85;;;;;;;26.76;42.88;100447.13;4434370;32;20044;-68
2021/08/20 02:42:47;;;;;;;5.25;3.20;;;;;;;26.83;42.52;100440.66;4430243;32;20108;-68
2021/08/20 02:45:12;;;;;;;5.18;2.90;;;;;;;26.80;42.71;100441.78;4434600;32;20029;-68
2021/08/20 02:47:39;;;;;;;8.57;3.30;;;;;;;26.69;42.99;100447.78;4434329;32;20141;-68
2021/08/20 02:50:05;;;;;;;6.18;2.65;;;;;;;26.67;42.84;100450.47;4432054;32;20052;-68
2021/08/20 02:52:30;;;;;;;4.37;2.90;;;;;;;26.90;42.90;100444.94;4431668;32;20104;-68
2021/08/20 02:54:56;;;;;;;4.20;3.10;;;;;;;26.86;42.74;100450.31;4434833;32;20691;-68
2021/08/20 02:57:27;;;;;;;5.35;2.90;;;;;;;26.89;42.66;100449.19;4434151;32;20144;-68
2021/08/20 02:59:53;;;;;;;5.80;3.28;;;;;;;26.80;42.90;100449.66;4435553;32;20037;-68
2021/08/20 03:02:19;;;;;;;5.80;2.85;;;;;;;26.83;42.84;100437.78;4434553;32;20411;-68
2021/08/20 03:04:44;;;;;;;4.90;2.80;;;;;;;26.90;42.66;100439.97;4434514;32;20095;-68
2021/08/20 03:07:10;;;;;;;5.80;3.10;;;;;;;26.80;42.94;100440.97;4435510;32;20037;-68
2021/08/20 03:09:36;;;;;;;4.20;2.87;;;;;;;26.84;42.90;100430.66;4429392;32;20116;-68
2021/08/20 03:12:02;;;;;;;7.85;3.33;;;;;;;26.70;43.15;100437.00;4425450;32;20145;-68
2021/08/20 03:14:28;;;;;;;6.22;2.85;;;;;;;26.80;43.06;100440.97;4423203;32;20425;-68
2021/08/20 03:16:54;;;;;;;3.95;2.90;;;;;;;26.78;42.91;100441.53;4423752;32;20108;-68
2021/08/20 03:19:20;;;;;;;6.53;3.15;;;;;;;26.69;42.99;100438.34;4425015;32;20034;-68
2021/08/20 03:21:45;;;;;;;3.67;2.42;;;;;;;26.73;42.86;100441.69;4428054;32;20162;-68
2021/08/20 03:24:11;;;;;;;6.00;2.83;;;;;;;26.77;43.04;100430.56;4425636;32;20137;-68
2021/08/20 03:26:37;;;;;;;17.00;7.30;;;;;;;26.70;42.87;100434.13;4424850;32;20042;-68
2021/08/20 03:29:03;;;;;;;12.93;5.53;;;;;;;26.84;42.98;100430.66;4423608;32;20022;-68
2021/08/20 03:31:30;;;;;;;6.05;3.80;;;;;;;26.76;42.70;100438.47;4420952;32;20429;-68
2021/08/20 03:33:56;;;;;;;8.02;3.97;;;;;;;26.76;43.02;100431.91;4423439;32;20065;-68
2021/08/20 03:36:24;;;;;;;4.60;3.05;;;;;;;26.80;42.92;100426.53;4424828;32;20095;-68
2021/08/20 03:38:50;;;;;;;4.82;2.97;;;;;;;26.74;43.04;100429.56;4423124;32;20053;-68
2021/08/20 03:41:18;;;;;;;5.05;3.12;;;;;;;26.62;43.39;100427.47;4425199;32;20077;-68
2021/08/20 03:43:45;;;;;;;4.68;3.03;;;;;;;26.81;43.16;100417.31;4423494;32;20069;-68
2021/08/20 03:46:12;;;;;;;6.10;3.45;;;;;;;26.60;43.59;100424.34;4422372;32;20063;-68
2021/08/20 03:48:38;;;;;;;12.00;5.18;;;;;;;26.75;43.23;100427.47;4422535;32;20064;-68
2021/08/20 03:51:04;;;;;;;29.63;11.82;;;;;;;26.73;43.40;100421.47;4426393;32;20021;-68
2021/08/20 03:53:30;;;;;;;16.33;7.30;;;;;;;26.84;43.27;100415.41;4423614;32;20072;-68
2021/08/20 03:55:56;;;;;;;7.55;4.22;;;;;;;26.72;43.29;100417.78;4423344;32;20390;-68
2021/08/20 03:58:22;;;;;;;7.10;3.55;;;;;;;26.84;43.09;100416.22;4417606;32;20476;-68
2021/08/20 04:00:52;;;;;;;5.55;3.33;;;;;;;26.81;42.89;100426.00;4420695;32;20629;-68
2021/08/20 04:03:19;;;;;;;6.43;3.83;;;;;;;26.98;42.82;100426.41;4407982;32;20034;-68
2021/08/20 04:05:45;;;;;;;5.93;3.50;;;;;;;27.16;42.54;100434.09;4421826;32;20105;-68
2021/08/20 04:08:10;;;;;;;5.78;3.55;;;;;;;27.05;42.71;100427.81;4422688;32;20097;-68
2021/08/20 04:10:36;;;;;;;6.53;3.53;;;;;;;27.08;42.64;100432.47;4427646;32;20487;-68
2021/08/20 04:13:02;;;;;;;6.82;3.70;;;;;;;27.01;42.80;100430.28;4422016;32;20053;-68
2021/08/20 04:15:28;;;;;;;13.02;5.55;;;;;;;27.08;42.72;100435.34;4420964;32;20126;-68
2021/08/20 04:17:53;;;;;;;12.50;5.85;;;;;;;27.08;42.65;100441.13;4422401;32;20030;-68
2021/08/20 04:20:19;;;;;;;12.80;5.62;;;;;;;27.08;42.71;100441.13;4422500;32;20097;-68
2021/08/20 04:22:45;;;;;;;12.82;6.07;;;;;;;27.14;42.51;100436.00;4428746;32;20136;-68
2021/08/20 04:25:12;;;;;;;12.30;6.05;;;;;;;27.18;42.46;100439.31;4426091;32;20090;-68
2021/08/20 04:27:38;;;;;;;14.23;6.03;;;;;;;27.24;42.42;100439.97;4424805;32;20038;-68
2021/08/20 04:30:04;;;;;;;13.13;5.82;;;;;;;26.93;42.91;100435.94;4423903;32;20096;-68
2021/08/20 04:32:29;;;;;;;12.07;5.90;;;;;;;26.95;42.85;100439.06;4423656;32;20113;-68
2021/08/20 04:34:55;;;;;;;14.05;6.60;;;;;;;26.95;42.97;100444.84;4418763;32;20026;-68
2021/08/20 04:37:23;;;;;;;15.63;6.93;;;;;;;26.92;42.97;100437.31;4423016;32;20082;-68
2021/08/20 04:39:50;;;;;;;12.32;6.72;;;;;;;26.88;43.07;100439.72;4424188;32;20344;-68
2021/08/20 04:42:16;;;;;;;13.30;7.12;;;;;;;27.03;43.03;100439.91;4423978;32;20034;-68
2021/08/20 04:44:41;;;;;;;12.80;6.93;;;;;;;26.89;43.23;100441.31;4418186;32;20451;-68
2021/08/20 04:47:09;;;;;;;15.02;6.80;;;;;;;26.90;43.27;100448.62;4423667;32;20094;-68
2021/08/20 04:49:34;;;;;;;9.73;6.28;;;;;;;26.97;43.07;100455.84;4416914;32;20045;-68
2021/08/20 04:52:01;;;;;;;15.55;7.00;;;;;;;26.92;42.99;100451.75;4422374;32;20114;-68
2021/08/20 04:54:28;;;;;;;13.52;6.78;;;;;;;26.99;43.17;100456.03;4421266;32;20030;-68
2021/08/20 04:56:55;;;;;;;12.55;7.30;;;;;;;27.15;42.71;100454.88;4406830;32;20173;-68
2021/08/20 04:59:21;;;;;;;14.23;8.30;;;;;;;27.04;42.90;100452.25;4418612;32;20089;-68
2021/08/20 05:01:47;;;;;;;16.05;7.68;;;;;;;26.96;43.09;100460.03;4420951;32;20029;-68
2021/08/20 05:04:14;;;;;;;13.70;7.47;;;;;;;27.05;42.89;100466.12;4422251;32;20061;-68
2021/08/20 05:06:39;;;;;;;16.00;7.32;;;;;;;27.14;42.67;100464.88;4420707;32;20080;-68
2021/08/20 05:09:07;;;;;;;11.23;7.18;;;;;;;27.12;42.75;100470.47;4422171;32;20423;-68
2021/08/20 05:11:35;;;;;;;11.00;7.75;;;;;;;27.12;42.72;100467.56;4421090;32;20134;-68
2021/08/20 05:14:01;;;;;;;11.45;8.15;;;;;;;27.32;42.51;100472.62;4420671;32;20109;-68
2021/08/20 05:16:26;;;;;;;13.05;8.00;;;;;;;27.03;43.11;100468.03;4417869;32;20057;-68
2021/08/20 05:18:53;;;;;;;12.68;8.07;;;;;;;27.04;42.97;100473.25;4423952;32;20088;-68
2021/08/20 05:21:19;;;;;;;16.10;8.10;;;;;;;27.23;42.67;100475.97;4419348;32;20101;-68
2021/08/20 05:23:44;;;;;;;13.13;8.23;;;;;;;27.21;42.71;100479.41;4409452;32;20056;-68
2021/08/20 05:26:10;;;;;;;12.52;7.35;;;;;;;27.12;42.78;100473.34;4421103;32;20157;-68
2021/08/20 05:28:35;;;;;;;18.02;8.90;;;;;;;27.27;42.61;100478.56;4421929;32;20048;-68
2021/08/20 05:31:01;;;;;;;12.30;7.60;;;;;;;27.28;42.62;100486.66;4419252;32;20084;-68
2021/08/20 05:33:27;;;;;;;14.13;7.93;;;;;;;27.29;42.61;100479.53;4421434;32;20091;-68
2021/08/20 05:35:54;;;;;;;12.55;7.22;;;;;;;27.28;42.61;100483.75;4419291;32;20675;-68
2021/08/20 05:38:20;;;;;;;13.60;7.87;;;;;;;27.25;42.86;100487.00;4422396;32;20149;-68
2021/08/20 05:40:46;;;;;;;16.42;8.50;;;;;;;27.33;42.65;100490.75;4425851;32;20029;-68
2021/08/20 05:43:11;;;;;;;15.15;8.95;;;;;;;27.36;42.64;100495.41;4421892;32;20770;-68
2021/08/20 05:45:37;;;;;;;15.75;8.63;;;;;;;27.31;42.64;100493.41;4422402;32;20437;-68
2021/08/20 05:48:06;;;;;;;12.63;7.95;;;;;;;27.41;42.42;100497.38;4419883;32;20082;-68
2021/08/20 05:50:32;;;;;;;13.20;8.05;;;;;;;27.43;42.48;100489.72;4422857;32;20064;-68
2021/08/20 05:52:58;;;;;;;13.93;8.25;;;;;;;27.12;42.79;100493.56;4422721;32;20051;-68
2021/08/20 05:55:25;;;;;;;16.33;7.53;;;;;;;27.02;43.26;100489.56;4417700;32;20046;-68
2021/08/20 05:57:51;;;;;;;12.90;7.95;;;;;;;27.07;43.20;100491.56;4423998;32;20104;-68
2021/08/20 06:00:17;;;;;;;14.40;7.93;;;;;;;27.19;43.04;100487.84;4407636;32;20126;-68
2021/08/20 06:02:43;;;;;;;11.85;7.90;;;;;;;27.24;42.81;100489.09;4421375;32;20097;-68
2021/08/20 06:05:10;;;;;;;11.63;7.40;;;;;;;27.00;43.29;100493.03;4419872;32;20037;-68
2021/08/20 06:07:36;;;;;;;12.23;7.80;;;;;;;27.18;43.01;100497.87;4420676;32;20117;-68
2021/08/20 06:10:05;;;;;;;10.95;7.32;;;;;;;27.25;42.90;100492.78;4405633;32;20119;-68
2021/08/20 06:12:31;;;;;;;10.30;6.75;;;;;;;27.46;42.52;100490.69;4417441;32;20022;-68
2021/08/20 06:14:58;;;;;;;12.70;6.75;;;;;;;27.34;42.69;100487.31;4421673;32;20042;-68
2021/08/20 06:17:24;;;;;;;12.07;7.00;;;;;;;27.49;42.43;100495.34;4420213;32;20457;-68
2021/08/20 06:19:50;;;;;;;10.60;6.22;;;;;;;27.37;42.55;100488.28;4419024;32;20069;-68
2021/08/20 06:22:15;;;;;;;9.38;6.53;;;;;;;27.42;42.42;100499.69;4420090;32;20380;-68
2021/08/20 06:24:42;;;;;;;9.52;6.47;;;;;;;27.52;42.24;100492.09;4421518;32;20038;-68
2021/08/20 06:27:07;;;;;;;14.05;6.47;;;;;;;27.60;42.04;100486.38;4424506;32;20124;-68
2021/08/20 06:29:33;;;;;;;15.55;7.70;;;;;;;27.71;41.48;100492.69;4420091;32;20030;-68
2021/08/20 06:31:59;;;;;;;9.52;6.18;;;;;;;27.76;41.68;100497.53;4405562;32;20094;-68
2021/08/20 06:34:24;;;;;;;11.27;6.45;;;;;;;27.83;41.62;100493.19;4418085;32;20065;-68
2021/08/20 06:36:50;;;;;;;9.50;6.18;;;;;;;27.72;41.70;100494.25;4419765;32;20104;-68
2021/08/20 06:39:16;;;;;;;19.35;14.40;;;;;;;27.80;41.58;100497.97;4421388;32;20060;-68
2021/08/20 06:41:41;;;;;;;10.05;5.95;;;;;;;27.89;41.31;100490.94;4422596;32;20176;-68
2021/08/20 06:44:07;;;;;;;9.57;6.60;;;;;;;27.91;41.09;100491.13;4425805;32;20054;-68
2021/08/20 06:46:33;;;;;;;12.75;6.32;;;;;;;28.13;40.46;100499.25;4424614;32;20041;-68
2021/08/20 06:48:59;;;;;;;9.90;6.22;;;;;;;28.11;40.33;100496.94;4421683;32;20061;-68
2021/08/20 06:51:25;;;;;;;12.80;6.65;;;;;;;28.38;39.80;100520.66;4408367;32;20034;-68
2021/08/20 06:53:50;;;;;;;11.38;6.37;;;;;;;28.21;40.10;100517.44;4422779;32;20156;-68
2021/08/20 06:56:16;;;;;;;9.25;6.43;;;;;;;28.37;40.06;100513.31;4420893;32;20045;-68
2021/08/20 06:58:41;;;;;;;8.18;5.65;;;;;;;28.28;40.20;100508.81;4420356;32;20111;-68
2021/08/20 07:01:07;;;;;;;10.45;5.78;;;;;;;28.24;39.91;100513.41;4423551;32;20101;-68
2021/08/20 07:03:33;;;;;;;9.15;6.07;;;;;;;28.55;39.63;100518.87;4424292;32;20354;-68
2021/08/20 07:05:59;;;;;;;8.98;5.25;;;;;;;28.69;39.04;100529.00;4425681;32;20448;-68
2021/08/20 07:08:24;;;;;;;11.50;6.47;;;;;;;28.57;39.28;100522.00;4421511;32;20406;-68
2021/08/20 07:10:50;;;;;;;10.35;6.28;;;;;;;28.58;39.12;100523.53;4420225;32;20030;-68
2021/08/20 07:13:16;;;;;;;8.38;5.60;;;;;;;28.68;39.16;100527.44;4426180;32;20076;-68
2021/08/20 07:15:42;;;;;;;13.05;7.30;;;;;;;29.01;38.66;100526.47;4422828;32;20730;-68
2021/08/20 07:18:08;;;;;;;10.18;5.75;;;;;;;29.11;38.62;100523.81;4426114;32;20058;-68
2021/08/20 07:20:34;;;;;;;14.00;6.97;;;;;;;29.15;38.60;100529.25;4420832;32;20046;-68
2021/08/20 07:22:59;;;;;;;12.82;5.87;;;;;;;29.10;38.51;100530.19;4420367;32;20038;-68
2021/08/20 07:25:25;;;;;;;10.00;5.50;;;;;;;29.47;37.61;100527.44;4427871;32;20041;-68
2021/08/20 07:27:51;;;;;;;9.02;4.68;;;;;;;29.49;37.94;100533.44;4426139;32;20059;-68
2021/08/20 07:30:17;;;;;;;10.27;5.25;;;;;;;29.52;37.64;100534.41;4420121;32;20397;-68
2021/08/20 07:32:45;;;;;;;12.20;5.25;;;;;;;29.81;36.97;100533.72;4419331;32;20045;-68
2021/08/20 07:35:11;;;;;;;10.48;5.57;;;;;;;30.11;36.94;100536.66;4420910;32;20091;-68
2021/08/20 07:37:37;;;;;;;6.90;5.00;;;;;;;30.15;36.73;100530.44;4422310;32;20026;-68
2021/08/20 07:40:05;;;;;;;11.10;4.70;;;;;;;30.36;36.34;100548.47;4424681;32;20169;-68
2021/08/20 07:42:30;;;;;;;8.75;4.60;;;;;;;30.55;35.49;100546.72;4423721;32;20080;-68
2021/08/20 07:44:56;;;;;;;10.05;4.80;;;;;;;30.57;35.48;100546.91;4423424;32;20474;-68
2021/08/20 07:47:22;;;;;;;7.57;4.37;;;;;;;30.88;34.79;100538.94;4424305;32;20125;-68
2021/08/20 07:49:48;;;;;;;7.15;3.80;;;;;;;31.01;34.75;100540.84;4423051;32;20451;-68
2021/08/20 07:52:13;;;;;;;7.62;3.30;;;;;;;30.97;34.49;100549.94;4424592;32;20455;-68
2021/08/20 07:54:39;;;;;;;11.95;3.12;;;;;;;31.04;34.21;100548.38;4424005;32;20346;-68
2021/08/20 07:57:05;;;;;;;5.30;3.05;;;;;;;30.87;34.70;100551.12;4407154;32;20081;-68
2021/08/20 07:59:32;;;;;;;6.43;2.58;;;;;;;30.90;34.49;100555.78;4419850;32;20520;-68
2021/08/20 08:01:58;;;;;;;5.18;2.78;;;;;;;30.80;34.34;100559.28;4425150;32;20038;-68
2021/08/20 08:04:23;;;;;;;10.45;3.20;;;;;;;30.99;34.17;100560.97;4422199;32;20746;-68
2021/08/20 08:06:49;;;;;;;3.42;2.42;;;;;;;30.89;34.35;100560.06;4419294;32;20111;-68
2021/08/20 08:09:15;;;;;;;5.12;3.30;;;;;;;30.93;34.14;100554.59;4421906;32;20065;-68
2021/08/20 08:11:41;;;;;;;8.18;2.75;;;;;;;31.08;33.91;100564.06;4421956;32;20429;-68
2021/08/20 08:14:07;;;;;;;3.40;2.25;;;;;;;31.27;33.11;100557.78;4423171;32;20088;-68
2021/08/20 08:16:35;;;;;;;5.60;2.50;;;;;;;30.88;33.97;100570.09;4422258;32;20140;-68
2021/08/20 08:19:04;;;;;;;4.30;2.60;;;;;;;31.46;33.11;100570.50;4419086;32;20096;-68
2021/08/20 08:21:30;;;;;;;6.28;2.08;;;;;;;31.52;33.29;100568.16;4420257;32;20490;-68
2021/08/20 08:23:57;;;;;;;3.35;1.87;;;;;;;31.48;33.31;100578.66;4422273;32;20026;-68
2021/08/20 08:26:23;;;;;;;8.07;2.08;;;;;;;31.66;32.65;100572.34;4421085;32;20099;-68
2021/08/20 08:28:50;;;;;;;3.75;2.00;;;;;;;31.79;32.00;100577.91;4420520;32;20106;-68
2021/08/20 08:31:15;;;;;;;4.20;2.12;;;;;;;31.69;32.48;100585.69;4422659;32;20461;-68
2021/08/20 08:33:41;;;;;;;8.80;2.10;;;;;;;31.67;32.51;100578.94;4422129;32;20095;-68
2021/08/20 08:36:07;;;;;;;4.32;2.20;;;;;;;31.81;32.24;100583.13;4421741;32;20156;-68
2021/08/20 08:38:33;;;;;;;6.28;2.17;;;;;;;31.69;32.37;100576.97;4421817;32;20041;-68
2021/08/20 08:41:01;;;;;;;7.25;2.83;;;;;;;31.40;33.09;100575.78;4422586;32;20048;-68
2021/08/20 08:43:26;;;;;;;3.65;1.92;;;;;;;30.97;34.15;100573.19;4426528;32;20150;-68
2021/08/20 08:45:54;;;;;;;6.15;2.62;;;;;;;30.77;33.68;100574.22;4420845;32;20159;-68
2021/08/20 08:48:20;;;;;;;5.50;2.37;;;;;;;30.74;33.90;100581.97;4420545;32;20366;-68
2021/08/20 08:50:46;;;;;;;2.33;2.00;;;;;;;31.17;33.65;100588.84;4422175;32;20082;-68
2021/08/20 08:53:12;;;;;;;4.95;2.00;;;;;;;31.09;33.43;100580.13;4421328;32;20597;-68
2021/08/20 08:55:38;;;;;;;3.05;2.08;;;;;;;31.22;33.36;100582.00;4420479;32;20061;-68
2021/08/20 08:58:06;;;;;;;2.08;1.80;;;;;;;31.35;33.33;100576.75;4421704;32;20075;-68
2021/08/20 09:00:35;;;;;;;3.03;1.58;;;;;;;31.34;33.18;100577.34;4421466;32;20074;-68
2021/08/20 09:03:02;;;;;;;4.40;1.73;;;;;;;32.09;31.99;100580.63;4423651;32;20041;-68
2021/08/20 09:05:46;;;;;;;3.10;1.70;;;;;;;32.42;30.96;100579.22;4420875;32;20077;-68
2021/08/20 09:08:14;;;;;;;;;;;;;;;32.64;29.99;100584.06;4423655;32;20535;-68
2021/08/20 09:10:49;;;;;;;3.05;1.27;;;;;;;32.63;29.19;100584.66;4422267;32;20553;-68
2021/08/20 09:13:15;;;;;;;2.87;1.45;;;;;;;32.60;29.71;100592.47;4420390;32;20038;-68
2021/08/20 09:15:41;;;;;;;1.60;1.05;;;;;;;32.57;29.52;100590.75;4422748;32;20069;-68
2021/08/20 09:18:06;;;;;;;3.08;1.42;;;;;;;32.79;29.19;100591.12;4418824;32;20056;-68
2021/08/20 09:20:35;;;;;;;1.90;1.30;;;;;;;32.91;29.16;100587.13;4421776;32;20425;-68
2021/08/20 09:23:03;;;;;;;1.48;1.02;;;;;;;33.01;28.51;100593.81;4419379;32;20052;-68
2021/08/20 09:28:25;;;;;;;1.37;0.90;;;;;;;33.82;27.72;100590.50;3983636;32;15023982;-68
2021/08/20 09:33:48;;;;;;;3.25;1.37;;;;;;;34.17;28.15;100594.84;3986548;32;15024107;-67
2021/08/20 09:36:17;;;;;;;1.90;1.62;;;;;;;34.17;28.15;100594.84;4437847;32;20454;-68
2021/08/20 09:38:46;;;;;;;2.58;1.10;;;;;;;33.83;28.07;100594.16;4439188;32;20089;-68
2021/08/20 09:41:17;;;;;;;4.50;1.52;;;;;;;34.49;26.89;100596.69;4440616;32;20037;-69
2021/08/20 09:43:47;;;;;;;3.05;1.75;;;;;;;34.22;28.27;100599.63;4437244;32;20030;-68
2021/08/20 09:46:16;;;;;;;2.37;1.65;;;;;;;33.52;29.18;100601.78;4436645;32;20029;-67
2021/08/20 09:51:43;;;;;;;2.35;1.50;;;;;;;33.01;29.15;100596.72;3985937;32;15022897;-67
2021/08/20 09:56:45;;;;;;;2.08;1.52;;;;;;;32.77;29.14;100600.47;3986860;32;15022864;-67
2021/08/20 09:59:12;;;;;;;2.42;1.73;;;;;;;32.77;29.14;100600.47;4441102;32;20716;-67
2021/08/20 10:01:41;;;;;;;2.58;1.73;;;;;;;32.37;29.28;100603.53;4434434;32;20073;-68
2021/08/20 10:04:09;;;;;;;2.60;1.23;;;;;;;32.84;28.27;100599.63;4438840;32;20033;-67
2021/08/20 10:06:37;;;;;;;2.58;1.40;;;;;;;32.80;28.23;100601.41;4439503;32;20448;-67
2021/08/20 10:09:08;;;;;;;3.58;1.17;;;;;;;32.77;28.67;100605.53;4439817;32;20064;-67
2021/08/20 10:11:38;;;;;;;12.18;1.70;;;;;;;32.67;28.87;100608.31;4441354;32;20060;-69
2021/08/20 10:14:05;;;;;;;1.90;0.85;;;;;;;32.69;28.81;100611.41;4442021;32;20439;-68
2021/08/20 10:16:32;;;;;;;2.95;1.10;;;;;;;32.19;28.80;100604.06;4440769;32;20061;-68
2021/08/20 10:18:59;;;;;;;5.93;1.02;;;;;;;32.35;28.05;100609.19;4435590;32;20448;-68
2021/08/20 10:21:26;;;;;;;2.28;1.00;;;;;;;32.30;28.05;100601.44;4439189;32;20037;-68
2021/08/20 10:23:52;;;;;;;3.97;1.20;;;;;;;32.32;28.32;100601.62;4441283;32;20478;-68
2021/08/20 10:26:19;;;;;;;1.75;1.20;;;;;;;32.36;28.38;100599.09;4440241;32;20155;-68
2021/08/20 10:28:46;;;;;;;2.62;1.60;;;;;;;32.50;28.55;100609.06;4440291;32;20059;-68
2021/08/20 10:31:14;;;;;;;2.72;1.27;;;;;;;32.41;28.74;100606.81;4436594;32;20194;-68
2021/08/20 10:33:40;;;;;;;3.30;1.10;;;;;;;32.59;28.49;100613.47;4439515;32;20085;-68
2021/08/20 10:36:06;;;;;;;1.80;1.20;;;;;;;32.51;28.60;100613.53;4439836;32;20044;-68
2021/08/20 10:49:20;;;;;;;2.08;1.10;;;;;;;32.99;28.25;100625.72;3984414;32;15023501;-68
2021/08/20 10:57:08;;;;;;;1.95;1.25;;;;;;;33.41;28.13;100623.50;3984050;32;15022955;-69
2021/08/20 11:05:14;;;;;;;4.75;1.27;;;;;;;34.15;27.17;100626.03;3980266;32;15044436;-68
2021/08/20 11:18:06;;;;;;;4.00;1.92;;;;;;;35.13;26.65;100624.41;3996817;31;15016728;-68
2021/08/20 11:28:26;;;;;;;7.87;1.87;;;;;;;34.99;26.59;100618.22;3985092;32;15025117;-68
2021/08/20 11:31:09;;;;;;;2.97;1.60;;;;;;;34.99;26.59;100618.22;4433591;32;20415;-68
2021/08/20 11:33:45;;;;;;;6.20;3.42;;;;;;;34.61;26.81;100602.72;4436122;32;20488;-69
2021/08/20 11:41:43;;;;;;;2.47;1.50;;;;;;;34.07;27.82;100617.41;3984287;32;15030554;-69
2021/08/20 11:44:10;;;;;;;4.62;1.50;;;;;;;34.07;27.82;100617.41;4437479;32;20041;-69
2021/08/20 11:46:41;;;;;;;4.85;1.90;;;;;;;33.66;28.09;100624.19;4437295;32;20105;-67
2021/08/20 11:49:08;;;;;;;4.20;2.00;;;;;;;33.85;28.11;100624.31;4436048;32;20077;-68
2021/08/20 11:51:37;;;;;;;5.15;1.98;;;;;;;34.00;28.06;100617.50;4435746;32;20102;-67
2021/08/20 11:54:05;;;;;;;4.25;2.05;;;;;;;34.31;27.81;100627.34;4437592;32;20021;-68
2021/08/20 11:56:31;;;;;;;4.85;2.10;;;;;;;34.06;28.12;100627.53;4439246;32;20041;-67
2021/08/20 11:59:05;;;;;;;5.37;1.17;;;;;;;34.40;27.45;100632.50;4438434;32;20406;-67
2021/08/20 12:01:34;;;;;;;4.37;1.40;;;;;;;34.78;26.79;100629.69;4439083;32;20387;-67
2021/08/20 12:04:01;;;;;;;3.08;1.42;;;;;;;34.84;26.62;100638.16;4439278;32;20395;-68
2021/08/20 12:06:28;;;;;;;1.98;1.30;;;;;;;35.43;26.06;100636.28;4439433;32;20052;-68
2021/08/20 12:08:57;;;;;;;4.10;1.52;;;;;;;35.76;25.52;100640.25;4436502;32;20173;-68
2021/08/20 12:11:25;;;;;;;2.00;1.40;;;;;;;35.86;25.60;100631.50;4440096;32;20089;-68
2021/08/20 12:13:53;;;;;;;1.83;1.33;;;;;;;35.42;25.91;100640.59;4441236;32;20456;-67
2021/08/20 12:21:54;;;;;;;3.37;1.55;;;;;;;35.80;25.67;100648.59;3993296;31;15033528;-69
2021/08/20 12:27:40;;;;;;;3.87;1.80;;;;;;;36.12;25.03;100651.78;3984554;32;15023509;-69